Flight Track Log - Related Links

Times and Time Zones

All times are in EDT time to prevent confusion due to time zone crossing. See the N137TK flight status page for this flight to view local times or setup timezone preferences in your user account.

Time Position Orientation Groundspeed Altitude Reporting Facility
EDT Latitude Longitude Course Direction KTS MPH feet Rate Location/Type
Mon 10:04:39 AM 30.0547 -90.0297 22° Northeast 118 136 400  Level Houston Center
Mon 10:05:46 AM 30.0939 -90.0114 22° Northeast 170 196 2,200 1,467 Climbing Houston Center
Mon 10:06:09 AM 30.0947 -89.9958 86° East 165 190 2,600 1,869 Climbing Houston Center
Mon 10:06:47 AM 30.0717 -89.9714 137° Southeast 170 196 4,100 1,839 Climbing Houston Center
Mon 10:07:11 AM 30.0589 -89.9697 174° South 168 193 4,500 1,976 Climbing Houston Center
Mon 10:08:12 AM 30.0031 -89.9556 168° South 172 198 6,900 2,000 Climbing Houston Center
Mon 10:09:14 AM 29.9564 -89.9425 166° South 172 198 8,600 1,597 Climbing Houston Center
Mon 10:10:16 AM 29.9083 -89.9272 165° South 176 203 10,200 1,548 Climbing Houston Center
Mon 10:11:18 AM 29.8597 -89.9144 167° South 180 207 11,800 1,500 Climbing Houston Center
Mon 10:12:20 AM 29.8094 -89.9100 176° South 181 208 13,300 1,403 Climbing Houston Center
Mon 10:13:22 AM 29.7583 -89.9044 175° South 182 209 14,700 1,306 Climbing Houston Center
Mon 10:14:24 AM 29.7058 -89.8975 173° South 189 217 16,000 1,355 Climbing Houston Center
Mon 10:15:26 AM 29.6467 -89.8703 158° South 196 226 17,500 1,258 Climbing Houston Center
Mon 10:16:28 AM 29.6100 -89.8178 129° Southeast 210 242 18,600 1,113 Climbing Houston Center
Mon 10:17:30 AM 29.5742 -89.7650 128° Southeast 211 243 19,800 1,161 Climbing Houston Center
Mon 10:18:32 AM 29.5403 -89.7153 128° Southeast 202 232 21,000 1,065 Climbing Houston Center
Mon 10:19:34 AM 29.5061 -89.6642 128° Southeast 203 234 22,000 1,016 Climbing Houston Center
Mon 10:20:36 AM 29.4622 -89.5997 128° Southeast 212 244 23,100 968 Climbing Houston Center
Mon 10:21:38 AM 29.4253 -89.5442 127° Southeast 221 254 24,000 871 Climbing Houston Center
Mon 10:22:40 AM 29.3889 -89.4889 127° Southeast 219 252 24,900 823 Climbing Houston Center
Mon 10:23:42 AM 29.3525 -89.4369 129° Southeast 212 244 25,700 726 Climbing Houston Center
Mon 10:24:44 AM 29.3172 -89.3856 128° Southeast 207 238 26,400 629 Climbing Houston Center
Mon 10:25:46 AM 29.2800 -89.3331 129° Southeast 210 242 27,000 288 Climbing Houston Center
Mon 10:26:49 AM 29.2319 -89.2622 128° Southeast 229 264 27,000  Level Houston Center
Mon 10:27:51 AM 29.1872 -89.1936 127° Southeast 261 300 27,000  Level Houston Center
Mon 10:28:53 AM 29.1397 -89.1247 128° Southeast 276 318 27,000  Level Houston Center
Mon 10:29:55 AM 29.0917 -89.0539 128° Southeast 281 323 27,000  Level Houston Center
Mon 10:30:57 AM 29.0444 -88.9850 128° Southeast 279 321 27,000  Level Houston Center
Mon 10:31:59 AM 28.9864 -88.9011 128° Southeast 281 323 27,000  Level Houston Center
Mon 10:33:01 AM 28.9383 -88.8308 128° Southeast 280 322 27,000  Level Houston Center
Mon 10:34:03 AM 28.8897 -88.7617 129° Southeast 281 323 27,000  Level Houston Center
Mon 10:35:05 AM 28.8414 -88.6922 128° Southeast 281 323 27,000  Level Houston Center
Mon 10:36:07 AM 28.7944 -88.6217 127° Southeast 280 322 27,000  Level Houston Center
Mon 10:37:09 AM 28.7461 -88.5536 129° Southeast 278 320 27,000  Level Houston Center
Mon 10:38:11 AM 28.6886 -88.4694 128° Southeast 280 322 27,000  Level Houston Center
Mon 10:39:13 AM 28.6397 -88.4011 129° Southeast 280 322 27,000  Level Houston Center
Mon 10:40:15 AM 28.5919 -88.3319 128° Southeast 278 320 27,000  Level Houston Center
Mon 10:41:17 AM 28.5439 -88.2642 129° Southeast 277 319 27,000  Level Houston Center
Mon 10:42:19 AM 28.4958 -88.1950 128° Southeast 279 321 27,000  Level Houston Center
Mon 10:43:21 AM 28.4478 -88.1264 129° Southeast 278 320 27,000  Level Houston Center
Mon 10:44:23 AM 28.3928 -88.0469 128° Southeast 280 322 27,000  Level Houston Center
Mon 10:45:25 AM 28.3628 -87.9622 112° Southeast 296 341 27,000  Level Houston Center
Mon 10:46:27 AM 28.3347 -87.8758 110° East 293 337 27,000  Level Houston Center
Mon 10:47:29 AM 28.3067 -87.7919 111° Southeast 288 331 27,000  Level Houston Center
Mon 10:48:31 AM 28.2722 -87.6881 111° Southeast 294 338 27,000  Level Houston Center
Mon 10:49:33 AM 28.2439 -87.6014 110° East 296 341 27,000  Level Houston Center
Mon 10:50:35 AM 28.2164 -87.5175 110° East 288 331 27,000  Level Houston Center
Mon 10:51:36 AM 28.1869 -87.4286 111° Southeast 299 344 27,000  Level Houston Center
Mon 10:52:38 AM 28.1575 -87.3417 111° Southeast 298 343 27,000  Level Houston Center
Mon 10:53:40 AM 28.1281 -87.2544 111° Southeast 298 343 27,000  Level Houston Center
Mon 10:55:01 AM 28.0903 -87.1361 110° East 297 342 27,000  Level Jacksonville Center
Mon 10:56:01 AM 28.0578 -87.0456 112° Southeast 296 341 27,000  Level Jacksonville Center
Mon 10:57:01 AM 28.0294 -86.9575 110° East 296 341 27,000  Level Jacksonville Center
Mon 10:58:01 AM 27.9989 -86.8692 111° Southeast 296 341 27,000  Level Jacksonville Center
Mon 10:59:01 AM 27.9722 -86.7858 110° East 293 337 27,000  Level Jacksonville Center
Mon 11:00:01 AM 27.9394 -86.6956 112° Southeast 298 343 27,000  Level Jacksonville Center
Mon 11:01:01 AM 27.9147 -86.6147 109° East 296 341 27,000  Level Jacksonville Center
Mon 11:02:01 AM 27.8856 -86.5339 112° Southeast 273 314 27,000  Level Jacksonville Center
Mon 11:03:01 AM 27.8528 -86.4389 111° Southeast 287 330 27,000  Level Jacksonville Center
Mon 11:04:01 AM 27.8219 -86.3486 111° Southeast 301 346 27,000  Level Jacksonville Center
Mon 11:05:01 AM 27.7950 -86.2678 111° Southeast 296 341 27,000  Level Jacksonville Center
Mon 11:06:01 AM 27.7636 -86.1847 113° Southeast 290 334 27,000  Level Jacksonville Center
Mon 11:07:01 AM 27.7325 -86.0994 112° Southeast 294 338 27,000  Level Jacksonville Center
Mon 11:08:44 AM 27.6817 -85.9428 110° East 300 345 27,000  Level Miami Center
Mon 11:09:44 AM 27.6597 -85.8639 107° East 289 333 27,000  Level Miami Center
Mon 11:10:44 AM 27.6236 -85.7744 114° Southeast 294 338 27,000  Level Miami Center
Mon 11:11:44 AM 27.5894 -85.6853 113° Southeast 305 351 27,000  Level Miami Center
Mon 11:12:44 AM 27.5608 -85.6106 113° Southeast 299 344 27,000  Level Miami Center
Mon 11:13:44 AM 27.5331 -85.5172 109° East 299 344 27,000  Level Miami Center
Mon 11:14:44 AM 27.4967 -85.4281 115° Southeast 299 344 27,000  Level Miami Center
Mon 11:15:44 AM 27.4703 -85.3444 110° East 299 344 27,000  Level Miami Center
Mon 11:16:44 AM 27.4358 -85.2578 114° Southeast 299 344 27,000  Level Miami Center
Mon 11:17:44 AM 27.4097 -85.1719 109° East 299 344 27,000  Level Miami Center
Mon 11:18:44 AM 27.3747 -85.0875 115° Southeast 299 344 27,000  Level Miami Center
Mon 11:19:44 AM 27.3481 -85.0086 111° Southeast 294 338 27,000  Level Miami Center
Mon 11:20:44 AM 27.3006 -84.9283 124° Southeast 294 338 27,000  Level Miami Center
Mon 11:21:44 AM 27.2697 -84.8444 112° Southeast 294 338 27,000  Level Miami Center
Mon 11:22:44 AM 27.2303 -84.7647 119° Southeast 294 338 27,000  Level Miami Center
Mon 11:23:44 AM 27.1911 -84.6828 118° Southeast 295 339 27,000  Level Miami Center
Mon 11:24:44 AM 27.1536 -84.6011 117° Southeast 295 339 27,000  Level Miami Center
Mon 11:25:44 AM 27.1225 -84.5197 113° Southeast 295 339 27,000  Level Miami Center
Mon 11:26:44 AM 27.0831 -84.4403 119° Southeast 295 339 27,000  Level Miami Center
Mon 11:27:44 AM 27.0456 -84.3586 117° Southeast 295 339 27,000  Level Miami Center
Mon 11:28:44 AM 27.0119 -84.2797 116° Southeast 295 339 27,000  Level Miami Center
Mon 11:29:44 AM 26.9722 -84.2003 119° Southeast 295 339 27,000  Level Miami Center
Mon 11:30:44 AM 26.9328 -84.1164 118° Southeast 295 339 27,000  Level Miami Center
Mon 11:31:44 AM 26.8969 -84.0397 118° Southeast 295 339 27,000  Level Miami Center
Mon 11:32:44 AM 26.8614 -83.9586 116° Southeast 295 339 27,000  Level Miami Center
Mon 11:33:44 AM 26.8233 -83.8794 118° Southeast 295 339 27,000  Level Miami Center
Mon 11:34:44 AM 26.7897 -83.8031 116° Southeast 295 339 27,000 -350 Level Miami Center
Mon 11:35:44 AM 26.7517 -83.7219 118° Southeast 295 339 26,300 -1,000 Descending Miami Center
Mon 11:36:44 AM 26.7100 -83.6311 117° Southeast 305 351 25,000 -1,250 Descending Miami Center
Mon 11:37:44 AM 26.6683 -83.5450 118° Southeast 318 366 23,800 -1,200 Descending Miami Center
Mon 11:38:44 AM 26.6261 -83.4592 119° Southeast 318 366 22,600 -1,350 Descending Miami Center
Mon 11:39:44 AM 26.5806 -83.3614 118° Southeast 317 365 21,100 -1,300 Descending Miami Center
Mon 11:40:44 AM 26.5444 -83.2831 117° Southeast 312 359 20,000 -1,150 Descending Miami Center
Mon 11:41:44 AM 26.5064 -83.1997 117° Southeast 307 353 18,800 -1,150 Descending Miami Center
Mon 11:42:44 AM 26.4642 -83.1164 119° Southeast 302 348 17,700 -1,150 Descending Miami Center
Mon 11:43:44 AM 26.4258 -83.0331 117° Southeast 302 348 16,500 -1,200 Descending Miami Center
Mon 11:44:44 AM 26.3856 -82.9500 118° Southeast 301 346 15,300 -1,150 Descending Miami Center
Mon 11:45:44 AM 26.3492 -82.8694 117° Southeast 301 346 14,200 -1,150 Descending Miami Center
Mon 11:46:44 AM 26.3108 -82.7908 119° Southeast 290 334 13,000 -1,150 Descending Miami Center
Mon 11:47:44 AM 26.2744 -82.7106 117° Southeast 296 341 11,900 -1,100 Descending Miami Center
Mon 11:48:44 AM 26.2358 -82.6297 118° Southeast 288 331 10,800 -1,100 Descending Miami Center
Mon 11:49:44 AM 26.1989 -82.5586 120° Southeast 288 331 9,700 -1,050 Descending Miami Center
Mon 11:50:44 AM 26.1622 -82.4806 118° Southeast 288 331 8,700 -1,050 Descending Miami Center
Mon 11:51:44 AM 26.1278 -82.4025 116° Southeast 283 326 7,600 -818 Descending Miami Center
Mon 11:52:56 AM 26.1350 -82.3197 84° East 262 302 6,900 -818 Descending Miami Center
Mon 11:53:56 AM 26.1383 -82.2275 88° East 267 307 5,800 -1,050 Descending Miami Center
Mon 11:54:56 AM 26.1267 -82.1458 99° East 272 313 4,800 -1,000 Descending Miami Center
Mon 11:56:08 AM 26.1069 -82.0572 104° East 272 313 3,600 -1,091 Descending Miami Center
Mon 11:57:08 AM 26.1039 -81.9644 92° East 258 297 2,400 -950 Descending Miami Center
Mon 11:58:08 AM 26.1128 -81.8886 83° East 252 290 1,700 -700 Descending Miami Center
Mon 11:59:08 AM 26.1275 -81.8269 75° East 232 267 1,000 -650 Descending Miami Center
Mon 12:00:08 PM 26.1372 -81.7903 74° East 173 199 400 -600 Descending Miami Center
Mon 12:02:00 PM 26.1500 -81.7667 79° East  Level FlightAware Approximate
Mon 12:09:00 PM 26.1524 -81.7756 79° East  Level Estimated

Login

Don't have an account? Register now (free) for customized features, flight alerts, and more!